Time;durP1;ratioP1;P1;durP2;ratioP2;P2;SDS_P1;SDS_P2;PMS_P1;PMS_P2;Temp;Humidity;BMP_temperature;BMP_pressure;BME280_temperature;BME280_humidity;BME280_pressure;Samples;Min_cycle;Max_cycle;Signal;HPM_P1;HPM_P2
2022/05/27 00:00:41;;;;;;;7.65;2.08;;;;;;;19.08;64.38;101881.69;5013391;28;20060;-65
2022/05/27 00:03:07;;;;;;;5.47;1.58;;;;;;;18.87;65.03;101870.84;4995974;28;20032;-64
2022/05/27 00:05:33;;;;;;;9.63;2.17;;;;;;;18.46;66.32;101872.22;5013449;28;20401;-66
2022/05/27 00:07:58;;;;;;;3.40;1.55;;;;;;;18.78;64.66;101875.06;5013950;28;20025;-74
2022/05/27 00:10:24;;;;;;;4.40;1.92;;;;;;;19.02;63.94;101871.00;4996110;28;20052;-73
2022/05/27 00:12:49;;;;;;;5.97;2.00;;;;;;;18.95;64.88;101865.75;5013861;28;20037;-71
2022/05/27 00:15:15;;;;;;;3.95;1.52;;;;;;;19.40;63.15;101854.50;5013333;28;20041;-72
2022/05/27 00:17:41;;;;;;;3.03;1.85;;;;;;;18.96;64.52;101863.84;5013593;28;20478;-72
2022/05/27 00:20:07;;;;;;;3.50;2.22;;;;;;;18.79;64.95;101854.94;5013221;28;20034;-72
2022/05/27 00:22:33;;;;;;;6.40;1.88;;;;;;;18.80;65.23;101870.19;4995966;28;20096;-72
2022/05/27 00:24:58;;;;;;;2.70;2.33;;;;;;;18.98;64.22;101870.69;5013284;28;20026;-71
2022/05/27 00:27:23;;;;;;;6.32;2.92;;;;;;;18.94;64.47;101864.09;5012210;28;20042;-72
2022/05/27 00:29:49;;;;;;;6.72;3.22;;;;;;;18.86;64.67;101870.00;5015328;28;20033;-72
2022/05/27 00:32:14;;;;;;;6.18;2.83;;;;;;;19.09;64.37;101869.72;5013488;28;20037;-71
2022/05/27 00:34:39;;;;;;;10.57;2.92;;;;;;;18.98;65.25;101872.59;5012482;28;20042;-70
2022/05/27 00:37:06;;;;;;;12.77;2.30;;;;;;;19.67;62.85;101877.13;5013439;28;20040;-71
2022/05/27 00:39:33;;;;;;;6.80;3.28;;;;;;;19.30;63.76;101871.56;5013331;28;20529;-70
2022/05/27 00:42:00;;;;;;;9.07;3.75;;;;;;;19.32;63.77;101873.22;5013435;28;20030;-71
2022/05/27 00:44:25;;;;;;;7.80;3.47;;;;;;;19.31;64.32;101877.84;5012907;28;20038;-72
2022/05/27 00:46:51;;;;;;;13.18;3.97;;;;;;;19.07;64.89;101882.78;5013724;28;20065;-72
2022/05/27 00:49:23;;;;;;;7.68;3.72;;;;;;;18.66;67.33;101872.47;5013220;28;20033;-71
2022/05/27 00:51:53;;;;;;;12.55;3.92;;;;;;;19.25;64.94;101874.25;5013019;28;20049;-70
2022/05/27 00:54:23;;;;;;;8.88;4.38;;;;;;;19.40;64.91;101867.34;4992256;28;20034;-71
2022/05/27 00:56:54;;;;;;;15.88;4.93;;;;;;;19.30;66.09;101871.56;4993489;28;20383;-71
2022/05/27 00:59:48;;;;;;;14.10;5.15;;;;;;;18.58;68.19;101874.81;4993415;28;20034;-71
2022/05/27 01:02:13;;;;;;;9.68;4.68;;;;;;;19.00;66.18;101864.97;4993876;28;20545;-71
2022/05/27 01:04:39;;;;;;;11.35;4.93;;;;;;;18.32;68.23;101874.44;4994104;28;20029;-72
2022/05/27 01:07:05;;;;;;;16.42;5.28;;;;;;;18.72;66.88;101871.47;4993477;28;20039;-72
2022/05/27 01:09:33;;;;;;;13.50;4.45;;;;;;;18.87;66.84;101868.13;4993270;28;20394;-71
2022/05/27 01:12:29;;;;;;;11.10;4.95;;;;;;;19.01;66.30;101875.63;4993636;28;20570;-72
2022/05/27 01:15:04;;;;;;;8.73;3.47;;;;;;;19.04;66.16;101879.75;4993183;28;20216;-71
2022/05/27 01:17:48;;;;;;;10.90;4.28;;;;;;;19.79;63.55;101875.00;4993143;28;20050;-72
2022/05/27 01:20:46;;;;;;;8.77;3.67;;;;;;;19.66;63.34;101880.09;4993015;28;20031;-72
2022/05/27 01:23:20;;;;;;;12.55;3.60;;;;;;;19.39;64.38;101884.75;5002504;28;20482;-72
2022/05/27 01:26:26;;;;;;;5.55;3.08;;;;;;;19.98;62.18;101897.28;5012848;28;20026;-73
2022/05/27 01:29:10;;;;;;;12.43;4.25;;;;;;;19.46;63.53;101901.75;4992888;28;20137;-72
2022/05/27 01:31:46;;;;;;;10.13;4.10;;;;;;;19.74;63.06;101905.00;4993331;28;20030;-72
2022/05/27 01:34:23;;;;;;;4.85;4.03;;;;;;;18.79;66.35;101896.59;5007526;28;20038;-72
2022/05/27 01:37:17;;;;;;;13.13;5.38;;;;;;;18.93;66.18;101897.84;5012208;28;20390;-71
2022/05/27 01:39:43;;;;;;;9.65;5.32;;;;;;;18.99;66.12;101896.00;5012130;28;20100;-72
2022/05/27 01:42:37;;;;;;;7.88;4.75;;;;;;;19.17;65.19;101901.13;5012460;28;20128;-71
2022/05/27 01:45:21;;;;;;;8.52;4.50;;;;;;;18.79;65.43;101896.59;5011984;28;20066;-73
2022/05/27 01:48:08;;;;;;;8.80;4.32;;;;;;;18.89;64.86;101904.06;5012263;28;20046;-72
2022/05/27 01:50:47;;;;;;;17.65;4.85;;;;;;;19.00;64.21;101900.41;5012165;28;20070;-72
2022/05/27 01:53:25;;;;;;;10.82;4.13;;;;;;;19.20;63.29;101895.19;5012227;28;20025;-71
2022/05/27 01:56:11;;;;;;;10.25;4.40;;;;;;;19.08;62.76;101899.94;4993014;28;20105;-71
2022/05/27 01:58:44;;;;;;;10.27;4.28;;;;;;;19.29;62.34;101891.72;4992997;28;20450;-71
2022/05/27 02:01:20;;;;;;;13.57;3.72;;;;;;;19.05;62.86;101901.28;4991928;28;20184;-71
2022/05/27 02:03:52;;;;;;;15.00;4.88;;;;;;;19.35;61.82;101894.53;4992316;28;20034;-71
2022/05/27 02:06:35;;;;;;;12.20;3.85;;;;;;;19.20;62.11;101900.63;4992040;28;20038;-71
2022/05/27 02:09:08;;;;;;;17.20;4.07;;;;;;;19.26;62.17;101905.06;4992045;28;20129;-71
2022/05/27 02:11:34;;;;;;;18.20;3.58;;;;;;;18.88;62.56;101910.59;4992087;28;20560;-73
2022/05/27 02:14:10;;;;;;;11.45;3.70;;;;;;;19.16;62.39;101905.75;4991925;28;20065;-71
2022/05/27 02:16:40;;;;;;;10.52;3.65;;;;;;;18.91;62.99;101908.19;4992289;28;20097;-72
2022/05/27 02:19:13;;;;;;;10.45;2.95;;;;;;;18.47;65.14;101911.97;4995776;28;20026;-72
2022/05/27 02:21:49;;;;;;;14.45;4.07;;;;;;;18.74;63.73;101904.72;5011475;28;20083;-71
2022/05/27 02:24:43;;;;;;;13.93;4.47;;;;;;;18.71;63.73;101897.03;5010837;28;20107;-71
2022/05/27 02:27:14;;;;;;;7.07;3.25;;;;;;;18.90;63.68;101886.66;5011921;28;20042;-71
2022/05/27 02:29:44;;;;;;;11.20;3.42;;;;;;;18.33;64.81;101884.28;5011325;28;20038;-72
2022/05/27 02:32:16;;;;;;;9.80;3.63;;;;;;;19.16;62.04;101883.16;5010905;28;20504;-71
2022/05/27 02:35:09;;;;;;;14.77;4.20;;;;;;;19.02;62.77;101881.91;5011606;28;20042;-71
2022/05/27 02:37:41;;;;;;;16.95;3.72;;;;;;;19.21;61.66;101880.47;4969501;28;20045;-71
2022/05/27 02:40:12;;;;;;;9.07;3.28;;;;;;;19.26;61.46;101888.69;4969461;28;20039;-71
2022/05/27 02:42:48;;;;;;;;;;;;;;;19.52;60.41;101882.44;4970349;28;20035;-71
2022/05/27 02:45:22;;;;;;;14.00;3.08;;;;;;;19.36;59.76;101896.19;4969186;28;20326;-72
2022/05/27 02:48:01;;;;;;;14.00;3.30;;;;;;;19.02;61.43;101903.69;4969527;28;20026;-71
2022/05/27 02:51:05;;;;;;;13.25;3.13;;;;;;;18.90;61.36;101906.56;4968508;28;20038;-70
2022/05/27 02:53:45;;;;;;;10.85;3.20;;;;;;;18.64;62.50;101909.19;4874293;29;20375;-71
2022/05/27 02:56:14;;;;;;;22.67;3.05;;;;;;;19.20;60.96;101911.53;4874267;29;20109;-71
2022/05/27 02:58:40;;;;;;;13.38;4.35;;;;;;;19.23;60.68;101903.66;4874788;29;20057;-72
2022/05/27 03:01:06;;;;;;;13.77;2.90;;;;;;;18.89;61.16;101898.63;4874093;29;20049;-70
2022/05/27 03:03:32;;;;;;;11.93;2.75;;;;;;;18.78;61.29;101894.13;4874194;29;20532;-71
2022/05/27 03:06:31;;;;;;;10.10;2.85;;;;;;;18.61;62.32;101893.38;4874136;29;20041;-71
2022/05/27 03:09:21;;;;;;;11.73;2.75;;;;;;;18.94;60.87;101877.72;4866877;29;20056;-71
2022/05/27 03:12:08;;;;;;;12.40;2.78;;;;;;;19.09;60.24;101885.22;4861868;29;20426;-71
2022/05/27 03:14:47;;;;;;;11.35;2.60;;;;;;;19.70;58.35;101873.03;4892697;29;20036;-71
2022/05/27 03:17:30;;;;;;;18.48;3.03;;;;;;;19.38;59.34;101885.84;4911488;29;20040;-71
2022/05/27 03:20:30;;;;;;;11.05;2.42;;;;;;;19.34;59.11;101898.34;4911416;29;20047;-70
2022/05/27 03:23:13;;;;;;;17.80;2.70;;;;;;;19.58;58.44;101899.66;4912199;29;20526;-72
2022/05/27 03:25:50;;;;;;;10.75;2.90;;;;;;;19.33;59.70;101911.16;4911974;29;20040;-72
2022/05/27 03:28:38;;;;;;;9.13;2.70;;;;;;;19.47;58.49;101898.75;4912061;29;20205;-72
2022/05/27 03:31:35;;;;;;;15.40;2.38;;;;;;;18.99;60.01;101901.47;4998162;28;20041;-71
2022/05/27 03:34:17;;;;;;;15.90;3.58;;;;;;;19.16;59.57;101904.94;4950123;28;20046;-71
2022/05/27 03:37:13;;;;;;;14.15;2.65;;;;;;;19.23;59.58;101905.56;4949743;29;20052;-71
2022/05/27 03:40:07;;;;;;;13.38;3.47;;;;;;;19.43;58.69;101900.34;4950243;29;20070;-70
2022/05/27 03:42:35;;;;;;;13.20;2.30;;;;;;;19.55;57.93;101906.47;4969609;28;20034;-70
2022/05/27 03:45:11;;;;;;;7.53;2.33;;;;;;;19.30;58.42;101904.25;4969412;28;20438;-70
2022/05/27 03:47:38;;;;;;;14.93;3.40;;;;;;;19.42;58.69;101908.78;4969276;28;20108;-72
2022/05/27 03:50:05;;;;;;;10.52;2.25;;;;;;;19.81;57.40;101904.78;4969346;28;20306;-70
2022/05/27 03:52:39;;;;;;;13.25;2.38;;;;;;;19.44;58.38;101901.97;4969566;28;20541;-71
2022/05/27 03:55:06;;;;;;;12.40;2.53;;;;;;;18.97;59.55;101909.91;4969020;28;20610;-71
2022/05/27 03:57:31;;;;;;;13.52;3.53;;;;;;;18.77;60.76;101908.84;4968756;28;20060;-71
2022/05/27 03:59:57;;;;;;;13.25;3.05;;;;;;;19.58;57.62;101899.66;4969300;28;20175;-72
2022/05/27 04:02:22;;;;;;;19.33;2.65;;;;;;;19.14;59.35;101904.38;4968632;28;20042;-71
2022/05/27 04:04:47;;;;;;;14.80;2.83;;;;;;;19.16;59.33;101897.56;4973365;28;20085;-71
2022/05/27 04:07:13;;;;;;;7.63;3.15;;;;;;;19.10;58.77;101903.25;4972092;28;20414;-70
2022/05/27 04:09:38;;;;;;;15.63;3.35;;;;;;;19.21;59.03;101907.72;4982669;28;20046;-71
2022/05/27 04:12:04;;;;;;;10.55;2.40;;;;;;;19.21;58.90;101907.72;4992372;28;20548;-70
2022/05/27 04:14:31;;;;;;;16.58;3.45;;;;;;;19.14;58.26;101907.91;4992337;28;20040;-71
2022/05/27 04:17:27;;;;;;;12.52;2.55;;;;;;;19.36;58.03;101904.38;4991339;28;20030;-68
2022/05/27 04:19:43;;;;;;;6.05;1.67;;;;;;;19.34;58.37;101903.78;5017842;28;20095;-71
2022/05/27 04:22:08;;;;;;;10.23;3.03;;;;;;;18.81;59.08;101896.38;5033950;28;20077;-71
2022/05/27 04:24:34;;;;;;;17.40;2.83;;;;;;;18.55;60.61;101897.94;5034552;28;20080;-70
2022/05/27 04:27:06;;;;;;;12.13;2.35;;;;;;;18.81;59.39;101897.16;5034314;28;20079;-71
2022/05/27 04:29:31;;;;;;;7.97;2.47;;;;;;;18.60;59.69;101914.31;5034260;28;20072;-71
2022/05/27 04:31:57;;;;;;;8.60;2.75;;;;;;;19.26;57.81;101915.97;5032391;28;20041;-71
2022/05/27 04:34:22;;;;;;;12.88;2.55;;;;;;;19.32;57.16;101912.19;5034228;28;20040;-71
2022/05/27 04:36:47;;;;;;;17.92;3.78;;;;;;;18.64;59.47;101911.91;5032568;28;20532;-70
2022/05/27 04:39:14;;;;;;;9.00;2.65;;;;;;;18.95;58.08;101913.94;5034204;28;20041;-71
2022/05/27 04:41:40;;;;;;;16.23;2.92;;;;;;;19.22;57.68;101910.16;5032477;28;20033;-70
2022/05/27 04:44:05;;;;;;;9.48;2.60;;;;;;;18.77;59.26;101911.56;5033723;28;20053;-70
2022/05/27 04:46:31;;;;;;;12.13;2.42;;;;;;;18.79;59.29;101912.13;5034101;28;20104;-71
2022/05/27 04:48:56;;;;;;;20.38;6.05;;;;;;;18.79;59.41;101912.94;5033735;28;20049;-71
2022/05/27 04:51:22;;;;;;;9.65;3.03;;;;;;;18.76;60.14;101918.06;5033743;28;20045;-71
2022/05/27 04:53:47;;;;;;;10.15;3.25;;;;;;;18.86;60.39;101916.31;5033605;28;20029;-71
2022/05/27 04:56:13;;;;;;;11.65;3.97;;;;;;;19.36;58.04;101913.34;5031322;28;20033;-71
2022/05/27 04:58:38;;;;;;;17.25;2.85;;;;;;;18.87;60.08;101911.69;5014520;28;20096;-70
2022/05/27 05:01:03;;;;;;;12.95;2.90;;;;;;;19.51;57.91;101924.41;5013639;28;20034;-72
2022/05/27 05:03:29;;;;;;;12.13;2.55;;;;;;;19.17;58.94;101925.66;5013448;28;20046;-71
2022/05/27 05:05:54;;;;;;;18.10;3.72;;;;;;;19.13;59.31;101930.78;5013587;28;20030;-72
2022/05/27 05:08:36;;;;;;;13.30;2.80;;;;;;;19.15;59.47;101928.63;5013707;28;20034;-71
2022/05/27 05:11:03;;;;;;;14.18;2.72;;;;;;;18.95;59.58;101924.84;5013667;28;20679;-70
2022/05/27 05:13:29;;;;;;;9.15;3.03;;;;;;;19.41;58.20;101927.03;5013329;28;20041;-70
2022/05/27 05:15:55;;;;;;;12.95;2.95;;;;;;;19.19;58.84;101926.22;5013232;28;20026;-69
2022/05/27 05:18:20;;;;;;;13.50;2.75;;;;;;;18.91;59.13;101929.16;5012898;28;20897;-71
2022/05/27 05:20:46;;;;;;;12.48;2.83;;;;;;;18.81;59.34;101939.94;5012915;28;20034;-71
2022/05/27 05:23:11;;;;;;;13.05;2.55;;;;;;;19.15;57.82;101939.53;5013016;28;20092;-71
2022/05/27 05:25:36;;;;;;;9.57;2.70;;;;;;;19.44;56.88;101942.06;5013601;28;20034;-72
2022/05/27 05:28:02;;;;;;;11.90;2.63;;;;;;;19.46;57.12;101943.44;5013146;28;20030;-70
2022/05/27 05:30:28;;;;;;;10.40;3.80;;;;;;;19.50;55.76;101949.22;5013056;28;20096;-70
2022/05/27 05:32:53;;;;;;;17.33;3.63;;;;;;;19.29;56.80;101943.53;5013043;28;20029;-70
2022/05/27 05:35:20;;;;;;;12.52;2.50;;;;;;;19.09;55.38;101943.28;5013372;28;20149;-70
2022/05/27 05:37:45;;;;;;;11.60;2.55;;;;;;;19.25;55.22;101955.19;5013452;28;20037;-70
2022/05/27 05:40:12;;;;;;;10.65;2.70;;;;;;;19.58;54.85;101955.00;5012986;28;20045;-69
2022/05/27 05:42:38;;;;;;;12.38;2.88;;;;;;;19.48;55.24;101954.91;5012935;28;20409;-69
2022/05/27 05:45:05;;;;;;;17.60;3.25;;;;;;;19.48;54.37;101959.56;5012952;28;20030;-69
2022/05/27 05:47:30;;;;;;;14.25;2.38;;;;;;;19.66;53.93;101968.19;5012523;28;20436;-70
2022/05/27 05:49:55;;;;;;;8.57;1.95;;;;;;;19.20;53.57;101960.59;5013047;28;20033;-70
2022/05/27 05:52:21;;;;;;;8.32;3.10;;;;;;;18.94;52.99;101964.06;5012713;28;20045;-72
2022/05/27 05:54:46;;;;;;;11.10;2.63;;;;;;;19.62;52.38;101960.78;5012821;28;20497;-70
2022/05/27 05:57:11;;;;;;;5.50;1.58;;;;;;;18.52;53.23;101955.59;5012995;28;20173;-71
2022/05/27 05:59:38;;;;;;;14.75;2.50;;;;;;;19.80;50.46;101950.31;5013009;28;20049;-70
2022/05/27 06:02:05;;;;;;;12.32;2.28;;;;;;;18.92;50.42;101958.06;5012709;28;20034;-70
2022/05/27 06:04:30;;;;;;;9.48;2.20;;;;;;;18.55;50.93;101965.16;5013196;28;20522;-72
2022/05/27 06:06:56;;;;;;;9.43;1.70;;;;;;;18.92;50.94;101958.06;5012477;28;20034;-70
2022/05/27 06:09:25;;;;;;;9.70;2.10;;;;;;;19.32;50.28;101955.00;5012413;28;20038;-71
2022/05/27 06:11:56;;;;;;;8.77;1.92;;;;;;;19.48;49.51;101962.28;5012878;28;20425;-71
2022/05/27 06:14:22;;;;;;;9.32;2.17;;;;;;;19.58;49.25;101952.28;5012585;28;20057;-71
2022/05/27 06:16:48;;;;;;;9.75;2.30;;;;;;;18.81;50.85;101965.25;5013346;28;20025;-73
2022/05/27 06:19:13;;;;;;;12.38;2.42;;;;;;;19.66;49.61;101964.63;4994807;28;20057;-70
2022/05/27 06:21:38;;;;;;;12.65;2.00;;;;;;;18.42;51.48;101969.88;5012538;28;20034;-71
2022/05/27 06:24:04;;;;;;;13.98;3.80;;;;;;;18.54;51.89;101971.66;5012133;28;20046;-71
2022/05/27 06:26:30;;;;;;;13.90;2.38;;;;;;;19.27;50.87;101961.19;5012728;28;20042;-71
2022/05/27 06:34:24;;;;;;;11.82;2.08;;;;;;;18.20;48.57;101979.03;4992999;28;20049;-69
2022/05/27 06:36:53;;;;;;;8.02;2.03;;;;;;;18.43;48.60;101984.31;4992638;28;20041;-72
2022/05/27 06:39:19;;;;;;;10.02;2.13;;;;;;;18.02;49.48;101977.38;4992609;28;20498;-73
2022/05/27 06:41:45;;;;;;;14.65;2.53;;;;;;;18.14;49.96;101986.28;4992330;28;20030;-71
2022/05/27 06:44:10;;;;;;;8.45;1.80;;;;;;;18.50;49.40;101998.56;4997098;28;20061;-70
2022/05/27 06:46:36;;;;;;;11.23;2.13;;;;;;;18.01;47.91;102002.94;5005422;28;20042;-74
2022/05/27 06:49:05;;;;;;;15.60;2.65;;;;;;;18.50;46.29;101993.13;5008961;28;20037;-70
2022/05/27 06:51:30;;;;;;;11.40;1.70;;;;;;;18.34;44.71;101991.22;5006866;28;20166;-74
2022/05/27 06:53:56;;;;;;;6.90;1.80;;;;;;;18.33;45.08;102003.19;5005696;28;20045;-72
2022/05/27 06:56:21;;;;;;;15.13;2.80;;;;;;;18.44;42.47;101993.31;5007474;28;20065;-71
2022/05/27 06:58:47;;;;;;;12.70;2.30;;;;;;;18.83;43.65;101995.78;5011614;28;20032;-69
2022/05/27 07:01:13;;;;;;;18.20;3.17;;;;;;;18.75;45.84;101998.94;5010633;28;20068;-71
2022/05/27 07:03:38;;;;;;;17.75;3.35;;;;;;;18.50;46.71;102000.47;5010767;28;20049;-70
2022/05/27 07:06:06;;;;;;;9.45;2.75;;;;;;;18.46;45.28;102000.16;5007894;28;20042;-70
2022/05/27 07:08:31;;;;;;;10.50;2.13;;;;;;;18.25;45.24;102012.59;5009199;28;20108;-73
2022/05/27 07:10:57;;;;;;;6.90;1.85;;;;;;;17.60;46.32;102011.41;5011026;28;20041;-70
2022/05/27 07:13:23;;;;;;;7.68;2.42;;;;;;;18.03;43.08;102008.94;5005158;28;20042;-73
2022/05/27 07:15:48;;;;;;;11.40;2.47;;;;;;;18.25;42.85;102006.31;5005786;28;20041;-70
2022/05/27 07:18:13;;;;;;;16.48;2.65;;;;;;;19.30;41.31;102005.13;5005235;28;20045;-68
2022/05/27 07:20:41;;;;;;;15.30;2.15;;;;;;;19.83;40.71;102009.00;5008902;28;20026;-69
2022/05/27 07:23:06;;;;;;;13.30;3.03;;;;;;;19.23;41.97;102020.84;5008270;28;20018;-72
2022/05/27 07:25:35;;;;;;;11.63;2.38;;;;;;;19.24;40.79;102021.69;5009711;28;20152;-71
2022/05/27 07:28:02;;;;;;;16.15;2.25;;;;;;;19.57;40.33;102015.28;5007052;28;20034;-70
2022/05/27 07:30:27;;;;;;;11.73;2.63;;;;;;;18.91;40.71;102008.97;5009121;28;20038;-74
2022/05/27 07:32:53;;;;;;;13.18;2.92;;;;;;;19.67;39.82;102018.94;5009499;28;20092;-70
2022/05/27 07:35:18;;;;;;;15.05;2.95;;;;;;;20.08;38.94;102022.88;4998856;28;20038;-71
2022/05/27 07:37:43;;;;;;;11.68;1.70;;;;;;;19.40;38.99;102034.44;5013909;28;20135;-73
2022/05/27 07:40:09;;;;;;;13.38;3.30;;;;;;;20.04;38.41;102022.59;5013338;28;20482;-70
2022/05/27 07:42:35;;;;;;;8.35;1.65;;;;;;;19.64;37.23;102027.63;5013689;28;20092;-72
2022/05/27 07:45:02;;;;;;;13.88;2.75;;;;;;;19.61;38.11;102022.69;5014451;28;20038;-71
2022/05/27 07:47:27;;;;;;;15.93;3.35;;;;;;;20.17;37.11;102038.53;5011636;28;20042;-71
2022/05/27 07:49:53;;;;;;;15.10;2.35;;;;;;;20.42;37.72;102039.84;4996501;28;20038;-72
2022/05/27 07:52:18;;;;;;;22.05;3.30;;;;;;;20.01;37.39;102036.72;5018099;28;20025;-71
2022/05/27 07:54:43;;;;;;;10.05;2.88;;;;;;;19.55;38.89;102047.44;5019693;28;20042;-70
2022/05/27 07:57:25;;;;;;;10.45;2.67;;;;;;;19.41;39.38;102057.06;5014913;28;20034;-68
2022/05/27 08:00:08;;;;;;;7.63;2.33;;;;;;;20.17;38.00;102036.91;5014060;28;20029;-67
2022/05/27 08:02:34;;;;;;;8.35;2.55;;;;;;;19.60;39.43;102039.28;4995177;28;20120;-70
2022/05/27 08:05:00;;;;;;;8.38;1.98;;;;;;;19.90;38.25;102058.72;4976867;28;20050;-70
2022/05/27 08:07:26;;;;;;;9.63;2.05;;;;;;;19.37;38.91;102054.03;5007646;28;20042;-68
2022/05/27 08:09:52;;;;;;;12.50;2.80;;;;;;;19.14;40.59;102063.22;5008216;28;20089;-70
2022/05/27 08:12:18;;;;;;;13.00;3.20;;;;;;;19.34;40.03;102051.78;5000662;28;20049;-71
2022/05/27 08:14:44;;;;;;;16.15;2.67;;;;;;;19.59;38.51;102057.56;5012956;28;20132;-64
2022/05/27 08:17:09;;;;;;;13.70;2.10;;;;;;;20.87;37.13;102054.63;5011573;28;20029;-65
2022/05/27 08:19:35;;;;;;;10.40;2.40;;;;;;;21.56;35.04;102055.28;5012592;28;20037;-63
2022/05/27 08:22:01;;;;;;;13.10;2.83;;;;;;;19.83;37.95;102048.00;5005991;28;20037;-65
2022/05/27 08:24:27;;;;;;;11.60;2.30;;;;;;;19.95;38.72;102059.59;5007576;28;20038;-64
2022/05/27 08:26:52;;;;;;;16.52;2.80;;;;;;;18.78;38.76;102055.66;5014082;28;20044;-66
2022/05/27 08:29:17;;;;;;;9.50;2.33;;;;;;;18.13;41.10;102079.03;5006584;28;20039;-65
2022/05/27 08:31:43;;;;;;;10.65;2.50;;;;;;;19.37;38.96;102069.56;4998138;28;20068;-67
2022/05/27 08:39:51;;;;;;;8.63;2.00;;;;;;;18.59;39.33;102088.84;5011174;28;20041;-64
2022/05/27 08:42:39;;;;;;;10.57;2.10;;;;;;;18.54;39.82;102073.22;5012213;28;20116;-65
2022/05/27 08:45:23;;;;;;;10.55;2.20;;;;;;;19.70;39.11;102075.69;5007995;28;20505;-64
2022/05/27 08:47:56;;;;;;;11.43;2.92;;;;;;;19.50;38.96;102078.19;5009621;28;20135;-65
2022/05/27 08:50:32;;;;;;;11.13;2.40;;;;;;;18.96;41.23;102073.63;4993104;28;20074;-66
2022/05/27 08:53:02;;;;;;;9.02;2.17;;;;;;;20.67;38.56;102078.28;4997024;28;20096;-66
2022/05/27 09:01:31;;;;;;;17.35;3.92;;;;;;;20.60;37.21;102083.16;5011452;28;20095;-66
2022/05/27 09:04:17;;;;;;;14.98;2.28;;;;;;;21.21;36.74;102084.41;5009645;28;20034;-67
2022/05/27 09:07:02;;;;;;;6.13;1.95;;;;;;;20.76;37.31;102085.72;5007961;28;20142;-68
2022/05/27 09:09:29;;;;;;;11.10;2.20;;;;;;;19.82;38.09;102076.38;5008836;28;20029;-65
2022/05/27 09:12:13;;;;;;;12.15;2.55;;;;;;;20.28;37.60;102079.59;5009462;28;20048;-67
2022/05/27 09:14:45;;;;;;;12.80;3.08;;;;;;;19.81;39.29;102093.00;5012621;28;20042;-65
2022/05/27 09:17:33;;;;;;;15.40;3.53;;;;;;;19.95;37.99;102086.09;5011530;28;20033;-70
2022/05/27 09:20:36;;;;;;;5.78;1.90;;;;;;;20.02;39.22;102092.16;5009612;28;20120;-65
2022/05/27 09:23:20;;;;;;;8.10;1.90;;;;;;;20.14;39.02;102107.28;5006232;28;20061;-65
2022/05/27 09:26:21;;;;;;;8.65;2.15;;;;;;;20.87;36.03;102081.16;5009257;28;20041;-65
2022/05/27 09:29:04;;;;;;;12.77;2.70;;;;;;;21.08;35.84;102093.91;4929873;29;20070;-66
2022/05/27 09:31:39;;;;;;;15.25;3.42;;;;;;;20.14;37.02;102101.84;4930948;29;20099;-66
2022/05/27 09:34:10;;;;;;;7.85;1.83;;;;;;;20.34;36.61;102103.97;4929482;29;20679;-66
2022/05/27 09:36:39;;;;;;;12.50;2.15;;;;;;;19.65;36.57;102094.75;4929907;29;20039;-66
2022/05/27 09:39:10;;;;;;;9.93;2.50;;;;;;;19.44;36.87;102103.72;4931440;29;20050;-66
2022/05/27 09:41:46;;;;;;;11.82;2.63;;;;;;;19.62;36.73;102092.50;4928763;29;20099;-65
2022/05/27 09:44:24;;;;;;;9.23;2.47;;;;;;;20.88;36.22;102099.19;4915557;29;20089;-64
2022/05/27 09:46:50;;;;;;;8.88;1.95;;;;;;;21.19;34.58;102097.53;4932834;29;20207;-65
2022/05/27 09:49:15;;;;;;;10.15;1.50;;;;;;;19.99;35.74;102093.47;4929716;29;20044;-66
2022/05/27 09:51:41;;;;;;;6.80;2.38;;;;;;;19.83;37.37;102096.31;4930966;29;20083;-65
2022/05/27 09:54:21;;;;;;;6.53;2.00;;;;;;;20.14;35.96;102092.81;4931375;29;20035;-66
2022/05/27 09:57:02;;;;;;;12.40;2.03;;;;;;;20.82;34.87;102089.31;4931560;29;20039;-67
2022/05/27 09:59:43;;;;;;;11.05;2.35;;;;;;;21.08;34.45;102090.34;4930704;29;20135;-64
2022/05/27 10:02:17;;;;;;;;;;;;;;;20.28;35.40;102093.25;4931399;29;20056;-64
2022/05/27 10:05:07;;;;;;;10.52;2.85;;;;;;;19.69;36.06;102084.13;4947544;28;19916;-66
2022/05/27 10:08:00;;;;;;;14.07;2.67;;;;;;;19.32;37.21;102107.63;5028184;28;20046;-67
2022/05/27 10:10:34;;;;;;;12.23;2.20;;;;;;;19.71;36.64;102099.19;5031740;28;20045;-68
2022/05/27 10:13:30;;;;;;;11.40;2.58;;;;;;;19.30;37.30;102110.63;5023329;28;20456;-67
2022/05/27 10:16:04;;;;;;;13.48;2.90;;;;;;;19.97;36.88;102103.00;5031021;28;20038;-67
2022/05/27 10:18:29;;;;;;;13.02;2.35;;;;;;;20.69;34.38;102098.81;5030943;28;20030;-66
2022/05/27 10:21:02;;;;;;;12.13;2.40;;;;;;;19.93;35.84;102113.59;5030932;28;20091;-67
2022/05/27 10:23:34;;;;;;;10.80;2.85;;;;;;;19.87;34.71;102089.25;5030400;28;20045;-66
2022/05/27 10:26:18;;;;;;;11.05;1.98;;;;;;;21.53;34.15;102098.75;5024627;28;20049;-67
2022/05/27 10:28:44;;;;;;;12.00;2.63;;;;;;;21.61;33.60;102101.00;5027008;28;20033;-67
2022/05/27 10:31:16;;;;;;;14.93;2.38;;;;;;;21.30;34.58;102115.63;5022655;28;20037;-66
2022/05/27 10:33:49;;;;;;;10.80;2.10;;;;;;;21.17;33.77;102100.50;5021972;28;20048;-66
2022/05/27 10:36:32;;;;;;;9.60;1.98;;;;;;;21.58;33.29;102104.28;5023252;28;20432;-66
2022/05/27 10:39:16;;;;;;;16.38;2.53;;;;;;;21.58;34.47;102093.34;5025392;28;20057;-64
2022/05/27 10:42:05;;;;;;;11.02;2.58;;;;;;;21.48;36.04;102102.28;5022028;28;20040;-67
2022/05/27 10:44:56;;;;;;;20.55;3.13;;;;;;;21.71;34.18;102110.06;5023086;28;20561;-68
2022/05/27 10:47:21;;;;;;;12.32;2.63;;;;;;;21.21;34.81;102103.56;5024750;28;20056;-66
2022/05/27 10:49:55;;;;;;;9.02;2.80;;;;;;;21.03;35.79;102098.50;5025914;28;20116;-66
2022/05/27 10:52:57;;;;;;;16.95;2.38;;;;;;;20.92;36.35;102117.53;5032324;28;20126;-66
2022/05/27 10:55:34;;;;;;;9.57;3.47;;;;;;;20.25;36.75;102097.31;5024999;28;20045;-65
2022/05/27 11:04:27;;;;;;;16.95;2.28;;;;;;;21.72;35.47;102103.50;4963224;28;20058;-66
2022/05/27 11:07:17;;;;;;;12.27;3.05;;;;;;;21.52;34.74;102108.06;4960799;28;20048;-65
2022/05/27 11:10:20;;;;;;;12.48;2.67;;;;;;;21.79;34.84;102105.97;4960716;28;20134;-66
2022/05/27 11:15:59;;;;;;;13.98;3.10;;;;;;;21.18;34.52;102110.38;4918270;29;20468;-65
2022/05/27 11:18:59;;;;;;;6.95;2.08;;;;;;;20.26;35.68;102126.28;4917038;29;20114;-67
2022/05/27 11:21:49;;;;;;;14.05;2.75;;;;;;;20.89;35.64;102106.31;4917844;29;20165;-66
2022/05/27 11:24:39;;;;;;;6.80;1.95;;;;;;;20.48;35.92;102104.34;4911525;29;20154;-64
2022/05/27 11:27:07;;;;;;;6.38;1.80;;;;;;;19.90;37.32;102124.22;4903675;29;20073;-67
2022/05/27 11:29:52;;;;;;;13.77;2.88;;;;;;;21.35;37.36;102113.72;4906130;29;20062;-67
2022/05/27 11:32:45;;;;;;;7.32;2.40;;;;;;;21.16;35.65;102120.75;4905751;29;20095;-64
2022/05/27 11:35:36;;;;;;;14.10;2.55;;;;;;;20.34;37.97;102127.72;4907395;29;20083;-65
2022/05/27 11:38:07;;;;;;;;;;;;;;;20.47;38.44;102124.53;4927614;28;20098;-65
2022/05/27 11:40:38;;;;;;;17.90;3.97;;;;;;;21.43;37.42;102135.09;4945628;29;19929;-65
2022/05/27 11:43:09;;;;;;;13.93;3.25;;;;;;;20.85;36.35;102129.78;4945141;28;20035;-66
2022/05/27 11:45:35;;;;;;;7.80;2.47;;;;;;;21.23;35.60;102125.97;4941362;29;20051;-64
2022/05/27 11:48:08;;;;;;;12.57;2.72;;;;;;;21.68;35.23;102132.47;5006662;28;20412;-65
2022/05/27 11:51:04;;;;;;;10.00;2.42;;;;;;;19.67;36.63;102136.22;5026666;28;20042;-67
2022/05/27 11:53:49;;;;;;;14.43;2.70;;;;;;;19.44;38.16;102132.91;5027814;28;20037;-66
2022/05/27 11:56:48;;;;;;;13.68;2.75;;;;;;;19.74;37.74;102128.66;5026975;28;20037;-66
2022/05/27 11:59:32;;;;;;;15.43;2.97;;;;;;;20.28;37.54;102129.56;5026729;28;20029;-68
2022/05/27 12:02:05;;;;;;;22.80;3.67;;;;;;;20.61;37.22;102136.69;5013131;28;20494;-65
2022/05/27 12:04:48;;;;;;;12.75;2.38;;;;;;;19.91;36.98;102142.25;5013139;28;20407;-66
2022/05/27 12:07:31;;;;;;;13.95;2.28;;;;;;;20.21;36.88;102141.75;5007000;28;20046;-67
2022/05/27 12:10:22;;;;;;;18.77;3.60;;;;;;;20.13;37.13;102152.03;5020684;28;20100;-69
2022/05/27 12:13:07;;;;;;;9.18;1.40;;;;;;;20.72;36.71;102143.88;5021696;28;20054;-66